createdAt,value
2022-08-07T00:01:44.565Z,1.40
2022-08-07T00:04:03.499Z,1.58
2022-08-07T00:06:33.521Z,1.35
2022-08-07T00:09:17.026Z,1.48
2022-08-07T00:11:55.585Z,1.30
2022-08-07T00:14:30.339Z,1.40
2022-08-07T00:17:01.962Z,1.52
2022-08-07T00:20:00.240Z,1.42
2022-08-07T00:22:24.559Z,1.38
2022-08-07T00:25:01.858Z,1.55
2022-08-07T00:27:29.448Z,1.10
2022-08-07T00:30:21.678Z,1.42
2022-08-07T00:32:56.651Z,1.45
2022-08-07T00:35:23.554Z,1.23
2022-08-07T00:37:50.889Z,1.20
2022-08-07T00:40:39.029Z,1.40
2022-08-07T00:43:04.388Z,1.38
2022-08-07T00:45:36.603Z,1.35
2022-08-07T00:48:18.221Z,1.38
2022-08-07T00:50:50.503Z,1.27
2022-08-07T00:53:18.238Z,1.20
2022-08-07T00:56:03.180Z,1.42
2022-08-07T00:58:32.442Z,1.35
2022-08-07T01:00:59.451Z,1.30
2022-08-07T01:03:56.734Z,1.50
2022-08-07T01:06:13.510Z,1.40
2022-08-07T01:08:51.394Z,1.60
2022-08-07T01:12:04.688Z,1.48
2022-08-07T01:14:09.028Z,1.45
2022-08-07T01:16:36.794Z,1.35
2022-08-07T01:19:18.062Z,1.17
2022-08-07T01:21:46.942Z,1.40
2022-08-07T01:24:14.321Z,1.40
2022-08-07T01:26:51.528Z,1.42
2022-08-07T01:29:19.193Z,1.30
2022-08-07T01:31:48.275Z,1.40
2022-08-07T01:34:17.727Z,1.00
2022-08-07T01:36:52.543Z,1.20
2022-08-07T01:39:40.702Z,1.20
2022-08-07T01:42:39.491Z,1.00
2022-08-07T01:45:09.853Z,1.13
2022-08-07T01:48:19.231Z,1.08
2022-08-07T01:50:30.396Z,0.93
2022-08-07T01:52:59.982Z,1.30
2022-08-07T01:55:36.457Z,1.30
2022-08-07T01:58:29.597Z,1.30
2022-08-07T02:01:10.046Z,1.48
2022-08-07T02:03:55.904Z,1.67
2022-08-07T02:06:31.229Z,1.20
2022-08-07T02:09:03.819Z,1.48
2022-08-07T02:12:02.607Z,1.20
2022-08-07T02:14:36.014Z,1.40
2022-08-07T02:17:07.319Z,1.50
2022-08-07T02:20:07.444Z,1.42
2022-08-07T02:22:25.912Z,1.23
2022-08-07T02:24:54.615Z,1.20
2022-08-07T02:27:23.931Z,1.40
2022-08-07T02:29:54.172Z,1.50
2022-08-07T02:32:23.247Z,1.45
2022-08-07T02:34:51.798Z,1.38
2022-08-07T02:37:20.445Z,1.17
2022-08-07T02:40:02.036Z,1.58
2022-08-07T02:42:36.597Z,1.30
2022-08-07T02:45:07.594Z,1.40
2022-08-07T02:47:53.120Z,1.42
2022-08-07T02:50:20.772Z,1.27
2022-08-07T02:53:13.862Z,1.33
2022-08-07T02:56:03.198Z,1.60
2022-08-07T02:58:33.794Z,1.52
2022-08-07T03:01:03.142Z,1.15
2022-08-07T03:03:50.209Z,1.47
2022-08-07T03:06:32.075Z,1.23
2022-08-07T03:09:01.669Z,1.52
2022-08-07T03:11:29.503Z,1.80
2022-08-07T03:14:01.746Z,1.50
2022-08-07T03:16:30.422Z,1.40
2022-08-07T03:19:00.854Z,1.42
2022-08-07T03:21:28.148Z,1.60
2022-08-07T03:24:19.927Z,1.35
2022-08-07T03:26:51.192Z,1.50
2022-08-07T03:29:30.954Z,1.47
2022-08-07T03:32:03.189Z,1.60
2022-08-07T03:34:31.965Z,1.13
2022-08-07T03:37:12.100Z,1.63
2022-08-07T03:39:45.930Z,1.70
2022-08-07T03:42:23.318Z,1.43
2022-08-07T03:44:53.459Z,1.83
2022-08-07T03:47:24.476Z,2.05
2022-08-07T03:49:52.435Z,1.73
2022-08-07T03:52:26.835Z,1.70
2022-08-07T03:54:57.179Z,1.77
2022-08-07T03:59:07.309Z,1.70
2022-08-07T04:00:14.815Z,1.85
2022-08-07T04:02:43.086Z,2.17
2022-08-07T04:05:14.044Z,1.92
2022-08-07T04:07:47.784Z,1.90
2022-08-07T04:10:15.517Z,1.95
2022-08-07T04:12:47.208Z,1.77
2022-08-07T04:15:15.856Z,1.80
2022-08-07T04:18:56.215Z,1.80
2022-08-07T04:20:31.044Z,2.07
2022-08-07T04:23:01.185Z,2.13
2022-08-07T04:25:30.241Z,1.92
2022-08-07T04:28:02.629Z,1.90
2022-08-07T04:30:39.286Z,2.15
2022-08-07T04:33:13.852Z,2.20
2022-08-07T04:35:51.055Z,1.77
2022-08-07T04:38:17.931Z,2.00
2022-08-07T04:40:52.970Z,1.75
2022-08-07T04:44:11.933Z,2.10
2022-08-07T04:47:08.379Z,2.67
2022-08-07T04:49:57.476Z,2.92
2022-08-07T04:52:51.100Z,2.60
2022-08-07T04:58:23.669Z,2.25
2022-08-07T04:59:17.434Z,2.15
2022-08-07T05:01:59.525Z,1.67
2022-08-07T05:04:50.462Z,2.00
2022-08-07T05:07:23.288Z,1.77
2022-08-07T05:10:11.764Z,2.45
2022-08-07T05:12:51.510Z,2.13
2022-08-07T05:15:26.228Z,2.33
2022-08-07T05:18:08.706Z,2.42
2022-08-07T05:20:44.952Z,2.25
2022-08-07T05:23:19.658Z,2.30
2022-08-07T05:26:15.639Z,3.05
2022-08-07T05:28:40.524Z,2.60
2022-08-07T05:31:10.969Z,3.17
2022-08-07T05:33:42.908Z,3.00
2022-08-07T05:36:30.476Z,2.67
2022-08-07T05:40:05.025Z,3.05
2022-08-07T05:42:01.159Z,3.00
2022-08-07T05:44:35.275Z,2.83
2022-08-07T05:47:17.856Z,3.17
2022-08-07T05:49:48.615Z,2.55
2022-08-07T05:52:17.674Z,3.00
2022-08-07T05:54:55.986Z,3.23
2022-08-07T05:57:30.497Z,3.97
2022-08-07T06:00:01.705Z,3.97
2022-08-07T06:02:31.655Z,3.58
2022-08-07T06:05:03.628Z,3.30
2022-08-07T06:08:14.818Z,3.40
2022-08-07T06:10:18.080Z,3.60
2022-08-07T06:12:45.473Z,3.45
2022-08-07T06:15:16.086Z,3.72
2022-08-07T06:17:53.552Z,3.42
2022-08-07T06:20:25.475Z,3.47
2022-08-07T06:23:24.688Z,3.53
2022-08-07T06:25:54.834Z,3.50
2022-08-07T06:28:27.407Z,3.50
2022-08-07T06:30:55.370Z,3.92
2022-08-07T06:33:22.691Z,3.97
2022-08-07T06:36:06.611Z,3.90
2022-08-07T06:38:35.906Z,4.05
2022-08-07T06:41:06.807Z,3.85
2022-08-07T06:43:39.455Z,3.70
2022-08-07T06:46:12.389Z,4.27
2022-08-07T06:48:41.848Z,4.15
2022-08-07T06:51:13.013Z,4.28
2022-08-07T06:54:12.064Z,3.78
2022-08-07T06:56:48.594Z,3.75
2022-08-07T07:00:13.059Z,3.67
2022-08-07T07:02:48.758Z,4.38
2022-08-07T07:05:02.777Z,4.18
2022-08-07T07:07:59.858Z,3.45
2022-08-07T07:10:27.088Z,3.72
2022-08-07T07:12:58.600Z,3.47
2022-08-07T07:15:32.550Z,3.75
2022-08-07T07:18:11.851Z,3.40
2022-08-07T07:20:44.914Z,3.45
2022-08-07T07:24:06.490Z,3.03
2022-08-07T07:26:33.482Z,2.50
2022-08-07T07:29:57.248Z,3.90
2022-08-07T07:31:47.779Z,2.72
2022-08-07T07:34:18.049Z,2.70
2022-08-07T07:36:47.789Z,2.50
2022-08-07T07:39:21.023Z,2.50
2022-08-07T07:42:13.099Z,2.42
2022-08-07T07:44:41.809Z,2.50
2022-08-07T07:47:13.988Z,2.22
2022-08-07T07:50:32.736Z,1.70
2022-08-07T07:52:35.687Z,1.90
2022-08-07T07:55:04.131Z,1.65
2022-08-07T07:57:50.410Z,1.95
2022-08-07T08:00:28.931Z,2.00
2022-08-07T08:03:07.979Z,2.08
2022-08-07T08:05:42.715Z,1.60
2022-08-07T08:08:34.983Z,1.92
2022-08-07T08:11:09.309Z,1.65
2022-08-07T08:13:54.189Z,1.58
2022-08-07T08:18:36.530Z,2.00
2022-08-07T08:20:15.955Z,1.70
2022-08-07T08:22:32.630Z,1.50
2022-08-07T08:25:27.117Z,1.70
2022-08-07T08:28:12.812Z,1.65
2022-08-07T08:30:51.353Z,1.70
2022-08-07T08:33:24.703Z,1.87
2022-08-07T08:35:57.121Z,1.50
2022-08-07T08:38:30.064Z,1.40
2022-08-07T08:41:13.231Z,1.77
2022-08-07T08:43:59.205Z,1.50
2022-08-07T08:46:48.998Z,1.67
2022-08-07T08:49:57.169Z,1.80
2022-08-07T08:52:36.227Z,1.65
2022-08-07T08:55:21.164Z,1.42
2022-08-07T08:58:20.360Z,1.52
2022-08-07T09:01:15.763Z,1.67
2022-08-07T09:03:52.929Z,1.73
2022-08-07T09:06:29.221Z,1.75
2022-08-07T09:09:21.042Z,1.55
2022-08-07T09:12:20.208Z,1.33
2022-08-07T09:16:23.338Z,1.70
2022-08-07T09:18:27.947Z,1.38
2022-08-07T09:21:58.159Z,1.50
2022-08-07T09:24:30.561Z,1.48
2022-08-07T09:27:29.272Z,1.17
2022-08-07T09:30:08.736Z,1.60
2022-08-07T09:32:56.850Z,1.65
2022-08-07T09:36:03.506Z,1.40
2022-08-07T09:38:58.960Z,1.67
2022-08-07T09:42:05.822Z,1.55
2022-08-07T09:47:24.395Z,2.10
2022-08-07T09:48:02.897Z,1.65
2022-08-07T09:51:03.032Z,1.60
2022-08-07T09:53:41.373Z,1.73
2022-08-07T09:56:37.262Z,1.80
2022-08-07T09:59:35.773Z,1.60
2022-08-07T10:02:34.616Z,1.40
2022-08-07T10:06:00.030Z,1.70
2022-08-07T10:08:49.598Z,1.50
2022-08-07T10:12:02.067Z,1.58
2022-08-07T10:14:39.009Z,1.70
2022-08-07T10:17:23.533Z,1.50
2022-08-07T10:20:27.726Z,1.60
2022-08-07T10:24:06.480Z,1.70
2022-08-07T10:26:29.848Z,1.42
2022-08-07T10:29:30.421Z,1.37
2022-08-07T10:32:37.049Z,1.20
2022-08-07T10:35:53.493Z,1.45
2022-08-07T10:38:48.636Z,1.02
2022-08-07T10:41:51.399Z,0.93
2022-08-07T10:44:45.165Z,1.60
2022-08-07T10:47:17.910Z,1.15
2022-08-07T10:49:54.291Z,1.02
2022-08-07T10:52:33.622Z,1.08
2022-08-07T10:55:27.116Z,1.20
2022-08-07T10:58:33.404Z,1.23
2022-08-07T11:01:35.178Z,1.10
2022-08-07T11:04:34.657Z,1.40
2022-08-07T11:07:56.092Z,1.27
2022-08-07T11:10:19.942Z,1.27
2022-08-07T11:14:42.127Z,1.40
2022-08-07T11:16:51.310Z,1.30
2022-08-07T11:19:52.864Z,1.30
2022-08-07T11:22:37.239Z,1.27
2022-08-07T11:25:27.772Z,1.40
2022-08-07T11:28:06.254Z,1.30
2022-08-07T11:30:51.263Z,1.23
2022-08-07T11:33:58.356Z,1.25
2022-08-07T11:36:39.272Z,1.30
2022-08-07T11:40:00.771Z,1.27
2022-08-07T11:42:59.117Z,1.50
2022-08-07T11:45:35.365Z,1.58
2022-08-07T11:48:29.452Z,1.40
2022-08-07T11:51:02.722Z,1.48
2022-08-07T11:54:00.716Z,1.60
2022-08-07T11:56:43.733Z,1.27
2022-08-07T12:00:11.261Z,1.52
2022-08-07T12:02:52.177Z,1.45
2022-08-07T12:05:47.367Z,1.58
2022-08-07T12:08:31.709Z,1.30
2022-08-07T12:11:20.821Z,1.60
2022-08-07T12:13:48.740Z,1.48
2022-08-07T12:16:30.737Z,1.20
2022-08-07T12:19:21.508Z,1.45
2022-08-07T12:22:39.327Z,1.30
2022-08-07T12:26:03.422Z,1.70
2022-08-07T12:28:30.868Z,1.52
2022-08-07T12:31:03.689Z,1.30
2022-08-07T12:34:00.749Z,1.20
2022-08-07T12:36:32.979Z,1.42
2022-08-07T12:39:03.362Z,1.60
2022-08-07T12:41:52.285Z,1.40
2022-08-07T12:44:21.589Z,1.40
2022-08-07T12:47:10.198Z,1.23
2022-08-07T12:50:04.976Z,1.50
2022-08-07T12:53:17.842Z,1.20
2022-08-07T12:56:12.396Z,1.20
2022-08-07T12:58:42.940Z,1.33
2022-08-07T13:01:32.895Z,1.25
2022-08-07T13:04:34.242Z,1.50
2022-08-07T13:08:12.884Z,1.60
2022-08-07T13:10:39.212Z,1.30
2022-08-07T13:13:08.654Z,1.50
2022-08-07T13:15:46.319Z,1.80
2022-08-07T13:18:26.210Z,1.50
2022-08-07T13:21:02.746Z,1.40
2022-08-07T13:24:01.086Z,1.42
2022-08-07T13:26:46.371Z,1.52
2022-08-07T13:29:51.287Z,1.20
2022-08-07T13:32:37.599Z,1.50
2022-08-07T13:35:15.834Z,1.50
2022-08-07T13:38:25.117Z,1.45
2022-08-07T13:41:17.993Z,1.63
2022-08-07T13:43:52.743Z,1.63
2022-08-07T13:46:32.767Z,1.67
2022-08-07T13:49:03.589Z,1.57
2022-08-07T13:52:05.068Z,1.67
2022-08-07T13:54:27.496Z,1.70
2022-08-07T13:56:59.717Z,1.73
2022-08-07T13:59:31.413Z,1.80
2022-08-07T14:02:10.141Z,1.73
2022-08-07T14:05:04.742Z,1.60
2022-08-07T14:08:00.575Z,1.75
2022-08-07T14:10:42.164Z,1.60
2022-08-07T14:13:14.032Z,1.60
2022-08-07T14:15:51.798Z,1.40
2022-08-07T14:18:49.815Z,1.42
2022-08-07T14:22:03.883Z,1.60
2022-08-07T14:24:33.299Z,1.45
2022-08-07T14:28:11.657Z,1.30
2022-08-07T14:30:07.139Z,1.70
2022-08-07T14:32:46.005Z,1.30
2022-08-07T14:38:09.520Z,1.23
2022-08-07T14:40:58.907Z,1.20
2022-08-07T14:43:59.066Z,1.20
2022-08-07T14:46:18.629Z,1.20
2022-08-07T14:48:58.561Z,1.50
2022-08-07T14:51:28.032Z,1.30
2022-08-07T14:54:32.884Z,1.30
2022-08-07T14:57:05.558Z,1.40
2022-08-07T15:00:05.297Z,1.33
2022-08-07T15:02:33.161Z,1.40
2022-08-07T15:05:02.319Z,1.10
2022-08-07T15:07:50.853Z,1.20
2022-08-07T15:10:26.520Z,1.30
2022-08-07T15:13:17.996Z,1.30
2022-08-07T15:18:45.859Z,1.52
2022-08-07T15:21:58.575Z,1.40
2022-08-07T15:25:16.169Z,1.37
2022-08-07T15:27:12.068Z,1.38
2022-08-07T15:30:10.334Z,1.40
2022-08-07T15:38:29.515Z,1.40
2022-08-07T15:41:24.033Z,1.48
2022-08-07T15:44:02.786Z,1.50
2022-08-07T15:46:32.252Z,1.60
2022-08-07T15:49:14.211Z,2.03
2022-08-07T15:54:34.556Z,1.83
2022-08-07T15:57:28.030Z,1.88
2022-08-07T15:59:59.427Z,1.83
2022-08-07T16:02:35.662Z,1.70
2022-08-07T16:05:15.191Z,1.70
2022-08-07T16:08:30.621Z,1.50
2022-08-07T16:11:04.502Z,1.73
2022-08-07T16:14:09.130Z,1.90
2022-08-07T16:16:56.868Z,2.03
2022-08-07T16:19:59.681Z,1.60
2022-08-07T16:22:34.030Z,1.75
2022-08-07T16:25:10.025Z,1.92
2022-08-07T16:30:06.516Z,1.70
2022-08-07T16:31:51.394Z,1.60
2022-08-07T16:34:50.323Z,1.80
2022-08-07T16:38:03.357Z,2.40
2022-08-07T16:40:56.944Z,1.70
2022-08-07T16:44:06.280Z,1.63
2022-08-07T16:47:05.797Z,2.17
2022-08-07T16:50:20.313Z,1.97
2022-08-07T16:53:20.703Z,1.80
2022-08-07T16:56:00.133Z,1.75
2022-08-07T16:59:10.101Z,1.85
2022-08-07T17:01:53.833Z,1.90
2022-08-07T17:05:00.646Z,1.83
2022-08-07T17:07:55.710Z,1.90
2022-08-07T17:10:39.540Z,2.05
2022-08-07T17:13:41.379Z,1.90
2022-08-07T17:17:06.961Z,2.17
2022-08-07T17:20:02.544Z,2.10
2022-08-07T17:22:43.663Z,2.03
2022-08-07T17:25:15.888Z,1.80
2022-08-07T17:28:06.765Z,1.90
2022-08-07T17:30:57.974Z,1.95
2022-08-07T17:34:08.645Z,2.20
2022-08-07T17:36:26.663Z,2.05
2022-08-07T17:39:15.503Z,2.10
2022-08-07T17:42:06.819Z,2.40
2022-08-07T17:44:51.530Z,2.42
2022-08-07T17:47:42.842Z,1.90
2022-08-07T17:50:20.432Z,1.90
2022-08-07T17:52:58.969Z,1.90
2022-08-07T17:55:55.620Z,1.92
2022-08-07T17:58:46.217Z,1.90
2022-08-07T18:01:22.629Z,1.90
2022-08-07T18:04:24.570Z,2.10
2022-08-07T18:07:24.401Z,2.13
2022-08-07T18:10:05.882Z,2.28
2022-08-07T18:13:06.905Z,2.20
2022-08-07T18:15:39.474Z,2.47
2022-08-07T18:18:46.806Z,2.35
2022-08-07T18:21:40.268Z,2.40
2022-08-07T18:24:10.424Z,1.90
2022-08-07T18:27:06.449Z,2.00
2022-08-07T18:30:06.319Z,1.80
2022-08-07T18:32:52.128Z,2.00
2022-08-07T18:35:30.496Z,1.98
2022-08-07T18:38:56.382Z,2.20
2022-08-07T18:44:08.861Z,2.03
2022-08-07T18:46:59.614Z,2.17
2022-08-07T18:50:30.026Z,2.10
2022-08-07T18:52:38.825Z,1.75
2022-08-07T18:55:42.486Z,2.05
2022-08-07T18:58:38.808Z,2.00
2022-08-07T19:02:17.477Z,2.10
2022-08-07T19:04:56.113Z,2.00
2022-08-07T19:07:51.648Z,1.85
2022-08-07T19:10:29.089Z,2.03
2022-08-07T19:13:11.521Z,1.88
2022-08-07T19:16:03.178Z,1.90
2022-08-07T19:18:44.621Z,2.15
2022-08-07T19:21:44.157Z,1.83
2022-08-07T19:24:30.906Z,2.30
2022-08-07T19:28:56.655Z,2.25
2022-08-07T19:31:05.119Z,2.17
2022-08-07T19:32:47.281Z,2.38
2022-08-07T19:35:25.664Z,2.15
2022-08-07T19:38:00.081Z,1.83
2022-08-07T19:40:34.846Z,2.38
2022-08-07T19:43:08.655Z,2.23
2022-08-07T19:46:04.664Z,1.88
2022-08-07T19:48:55.886Z,2.17
2022-08-07T19:51:52.953Z,2.13
2022-08-07T19:54:31.282Z,2.20
2022-08-07T19:58:03.351Z,2.17
2022-08-07T19:59:59.471Z,2.20
2022-08-07T20:02:34.955Z,1.88
2022-08-07T20:05:08.678Z,2.40
2022-08-07T20:07:46.418Z,2.30
2022-08-07T20:10:35.846Z,2.20
2022-08-07T20:13:22.861Z,2.30
2022-08-07T20:15:52.209Z,2.40
2022-08-07T20:18:21.958Z,2.40
2022-08-07T20:21:03.163Z,2.10
2022-08-07T20:23:43.054Z,2.20
2022-08-07T20:26:15.351Z,2.42
2022-08-07T20:28:59.156Z,2.35
2022-08-07T20:31:27.929Z,2.47
2022-08-07T20:33:57.568Z,3.22
2022-08-07T20:36:27.230Z,2.77
2022-08-07T20:39:00.703Z,2.75
2022-08-07T20:41:38.054Z,2.80
2022-08-07T20:44:12.707Z,2.80
2022-08-07T20:46:44.622Z,2.90
2022-08-07T20:49:59.099Z,2.70
2022-08-07T20:52:06.592Z,2.55
2022-08-07T20:54:45.568Z,2.80
2022-08-07T20:57:28.130Z,2.80
2022-08-07T21:00:06.431Z,2.78
2022-08-07T21:03:01.613Z,2.73
2022-08-07T21:05:50.584Z,2.97
2022-08-07T21:08:36.573Z,3.00
2022-08-07T21:11:29.029Z,3.08
2022-08-07T21:14:31.714Z,2.92
2022-08-07T21:18:00.336Z,2.50
2022-08-07T21:20:05.186Z,2.72
2022-08-07T21:22:38.572Z,2.97
2022-08-07T21:25:25.579Z,3.00
2022-08-07T21:28:07.729Z,3.08
2022-08-07T21:30:49.314Z,3.13
2022-08-07T21:33:16.192Z,3.35
2022-08-07T21:36:03.900Z,3.05
2022-08-07T21:38:54.877Z,2.83
2022-08-07T21:41:52.278Z,3.40
2022-08-07T21:44:51.164Z,3.73
2022-08-07T21:47:35.949Z,3.40
2022-08-07T21:50:19.655Z,3.67
2022-08-07T21:53:05.166Z,3.03
2022-08-07T21:56:32.801Z,3.17
2022-08-07T21:59:05.158Z,3.90
2022-08-07T22:02:11.411Z,2.72
2022-08-07T22:04:37.088Z,2.72
2022-08-07T22:07:21.241Z,3.47
2022-08-07T22:09:55.264Z,3.00
2022-08-07T22:12:27.215Z,3.43
2022-08-07T22:16:39.868Z,3.33
2022-08-07T22:18:09.307Z,3.60
2022-08-07T22:20:46.800Z,2.92
2022-08-07T22:23:21.735Z,3.58
2022-08-07T22:26:20.674Z,3.60
2022-08-07T22:29:04.303Z,3.55
2022-08-07T22:32:11.252Z,3.40
2022-08-07T22:34:54.637Z,4.20
2022-08-07T22:38:02.802Z,3.33
2022-08-07T22:40:53.295Z,3.50
2022-08-07T22:43:45.578Z,3.28
2022-08-07T22:47:02.371Z,2.88
2022-08-07T22:49:42.830Z,2.80
2022-08-07T22:52:37.659Z,3.17
2022-08-07T22:55:22.698Z,2.77
2022-08-07T22:58:11.414Z,3.00
2022-08-07T23:01:06.182Z,3.60
2022-08-07T23:03:57.303Z,3.45
2022-08-07T23:07:33.585Z,2.90
2022-08-07T23:10:38.429Z,2.93
2022-08-07T23:13:19.244Z,3.10
2022-08-07T23:16:05.363Z,3.35
2022-08-07T23:19:48.010Z,3.47
2022-08-07T23:22:37.102Z,3.78
2022-08-07T23:25:16.035Z,3.47
2022-08-07T23:28:22.175Z,3.42
2022-08-07T23:31:18.827Z,3.25
2022-08-07T23:34:39.558Z,3.50
2022-08-07T23:37:37.232Z,3.40
2022-08-07T23:40:51.758Z,2.87
2022-08-07T23:43:42.269Z,3.00
2022-08-07T23:46:39.660Z,3.63
2022-08-07T23:49:49.787Z,3.25
2022-08-07T23:53:00.300Z,3.17
2022-08-07T23:55:52.987Z,2.97
2022-08-07T23:58:26.939Z,3.15
